In Rescue
 
Open Full Screen Window  High Contrast Mode
June 22, 2024 9:32 PM CDT
Weather Information
Wind Direction
  ---
Wind Speed
  00 kt (0 mph)
Wind Gust
  00 kt (0 mph)
Altimeter
29.88 in
Visibility
10 SM
Temperature
22° C
72° F
Dewpoint
20° C
68° F
Humidity
88%
Sky Condition
Clear
VFR

METAR KDXX 230232Z AUTO 00000KT 10SM CLR 22/20 A2988 RMK AO2

FAA Disclaimer: The data displayed is for advisory purposes only and is not to be used for flight planning or operations.